sensor_id;sensor_type;location;lat;lon;timestamp;P1;durP1;ratioP1;P2;durP2;ratioP2
8094;SDS011;4090;49.270;8.696;2022-09-27T00:00:31;1.63;;;1.20;;
8094;SDS011;4090;49.270;8.696;2022-09-27T00:03:13;3.10;;;1.60;;
8094;SDS011;4090;49.270;8.696;2022-09-27T00:06:02;3.40;;;1.58;;
8094;SDS011;4090;49.270;8.696;2022-09-27T00:08:47;2.55;;;1.30;;
8094;SDS011;4090;49.270;8.696;2022-09-27T00:11:29;4.35;;;1.35;;
8094;SDS011;4090;49.270;8.696;2022-09-27T00:14:14;1.40;;;1.30;;
8094;SDS011;4090;49.270;8.696;2022-09-27T00:16:56;2.70;;;1.42;;
8094;SDS011;4090;49.270;8.696;2022-09-27T00:19:38;1.77;;;1.38;;
8094;SDS011;4090;49.270;8.696;2022-09-27T00:22:21;1.67;;;1.50;;
8094;SDS011;4090;49.270;8.696;2022-09-27T00:25:04;2.88;;;1.50;;
8094;SDS011;4090;49.270;8.696;2022-09-27T00:27:46;1.58;;;1.35;;
8094;SDS011;4090;49.270;8.696;2022-09-27T00:30:29;1.70;;;1.30;;
8094;SDS011;4090;49.270;8.696;2022-09-27T00:33:11;5.47;;;1.60;;
8094;SDS011;4090;49.270;8.696;2022-09-27T00:35:53;1.70;;;1.50;;
8094;SDS011;4090;49.270;8.696;2022-09-27T00:38:37;2.88;;;1.50;;
8094;SDS011;4090;49.270;8.696;2022-09-27T00:41:21;5.05;;;1.67;;
8094;SDS011;4090;49.270;8.696;2022-09-27T00:44:04;1.90;;;1.70;;
8094;SDS011;4090;49.270;8.696;2022-09-27T00:47:38;3.28;;;1.60;;
8094;SDS011;4090;49.270;8.696;2022-09-27T00:50:25;1.70;;;1.60;;
8094;SDS011;4090;49.270;8.696;2022-09-27T00:53:11;1.95;;;1.75;;
8094;SDS011;4090;49.270;8.696;2022-09-27T00:55:58;2.65;;;1.85;;
8094;SDS011;4090;49.270;8.696;2022-09-27T00:58:44;3.72;;;1.73;;
8094;SDS011;4090;49.270;8.696;2022-09-27T01:01:30;2.95;;;1.73;;
8094;SDS011;4090;49.270;8.696;2022-09-27T01:04:13;2.97;;;1.73;;
8094;SDS011;4090;49.270;8.696;2022-09-27T01:06:58;2.72;;;1.80;;
8094;SDS011;4090;49.270;8.696;2022-09-27T01:09:40;1.63;;;1.52;;
8094;SDS011;4090;49.270;8.696;2022-09-27T01:12:25;2.55;;;1.70;;
8094;SDS011;4090;49.270;8.696;2022-09-27T01:15:13;1.60;;;1.50;;
8094;SDS011;4090;49.270;8.696;2022-09-27T01:18:06;2.88;;;1.98;;
8094;SDS011;4090;49.270;8.696;2022-09-27T01:21:08;3.20;;;2.90;;
8094;SDS011;4090;49.270;8.696;2022-09-27T01:24:22;4.57;;;1.90;;
8094;SDS011;4090;49.270;8.696;2022-09-27T01:27:27;2.00;;;1.70;;
8094;SDS011;4090;49.270;8.696;2022-09-27T01:30:36;2.15;;;1.67;;
8094;SDS011;4090;49.270;8.696;2022-09-27T01:33:24;2.67;;;1.75;;
8094;SDS011;4090;49.270;8.696;2022-09-27T01:36:19;2.15;;;1.80;;
8094;SDS011;4090;49.270;8.696;2022-09-27T01:39:08;2.33;;;1.50;;
8094;SDS011;4090;49.270;8.696;2022-09-27T01:42:20;4.78;;;1.40;;
8094;SDS011;4090;49.270;8.696;2022-09-27T01:45:08;1.50;;;1.40;;
8094;SDS011;4090;49.270;8.696;2022-09-27T01:48:24;2.65;;;1.45;;
8094;SDS011;4090;49.270;8.696;2022-09-27T01:51:17;1.08;;;1.05;;
8094;SDS011;4090;49.270;8.696;2022-09-27T01:54:03;1.48;;;1.38;;
8094;SDS011;4090;49.270;8.696;2022-09-27T01:57:19;2.90;;;1.42;;
8094;SDS011;4090;49.270;8.696;2022-09-27T02:00:05;2.22;;;1.30;;
8094;SDS011;4090;49.270;8.696;2022-09-27T02:02:56;1.38;;;1.08;;
8094;SDS011;4090;49.270;8.696;2022-09-27T02:05:45;3.95;;;1.45;;
8094;SDS011;4090;49.270;8.696;2022-09-27T02:09:06;1.60;;;1.50;;
8094;SDS011;4090;49.270;8.696;2022-09-27T02:12:27;3.03;;;1.30;;
8094;SDS011;4090;49.270;8.696;2022-09-27T02:15:13;1.30;;;1.20;;
8094;SDS011;4090;49.270;8.696;2022-09-27T02:18:04;1.40;;;1.30;;
8094;SDS011;4090;49.270;8.696;2022-09-27T02:20:56;2.17;;;1.98;;
8094;SDS011;4090;49.270;8.696;2022-09-27T02:27:47;2.90;;;1.77;;
8094;SDS011;4090;49.270;8.696;2022-09-27T02:30:35;5.82;;;2.00;;
8094;SDS011;4090;49.270;8.696;2022-09-27T02:33:31;3.95;;;1.80;;
8094;SDS011;4090;49.270;8.696;2022-09-27T02:36:19;2.72;;;1.70;;
8094;SDS011;4090;49.270;8.696;2022-09-27T02:39:01;3.13;;;1.73;;
8094;SDS011;4090;49.270;8.696;2022-09-27T02:41:45;3.70;;;1.77;;
8094;SDS011;4090;49.270;8.696;2022-09-27T02:44:27;3.80;;;1.80;;
8094;SDS011;4090;49.270;8.696;2022-09-27T02:47:12;6.55;;;1.88;;
8094;SDS011;4090;49.270;8.696;2022-09-27T02:50:14;2.88;;;1.70;;
8094;SDS011;4090;49.270;8.696;2022-09-27T02:53:40;5.65;;;1.60;;
8094;SDS011;4090;49.270;8.696;2022-09-27T02:56:49;6.32;;;2.10;;
8094;SDS011;4090;49.270;8.696;2022-09-27T03:00:02;3.10;;;2.00;;
8094;SDS011;4090;49.270;8.696;2022-09-27T03:03:06;3.80;;;1.83;;
8094;SDS011;4090;49.270;8.696;2022-09-27T03:06:07;3.78;;;1.65;;
8094;SDS011;4090;49.270;8.696;2022-09-27T03:08:52;3.08;;;1.80;;
8094;SDS011;4090;49.270;8.696;2022-09-27T03:11:36;4.88;;;2.10;;
8094;SDS011;4090;49.270;8.696;2022-09-27T03:14:18;3.00;;;2.13;;
8094;SDS011;4090;49.270;8.696;2022-09-27T03:17:10;8.85;;;2.35;;
8094;SDS011;4090;49.270;8.696;2022-09-27T03:20:18;6.43;;;1.95;;
8094;SDS011;4090;49.270;8.696;2022-09-27T03:23:17;7.57;;;2.97;;
8094;SDS011;4090;49.270;8.696;2022-09-27T03:26:00;7.53;;;1.98;;
8094;SDS011;4090;49.270;8.696;2022-09-27T03:28:42;5.88;;;2.25;;
8094;SDS011;4090;49.270;8.696;2022-09-27T03:31:24;4.32;;;2.03;;
8094;SDS011;4090;49.270;8.696;2022-09-27T03:34:32;5.28;;;2.00;;
8094;SDS011;4090;49.270;8.696;2022-09-27T03:37:14;4.00;;;2.05;;
8094;SDS011;4090;49.270;8.696;2022-09-27T03:39:56;6.50;;;2.25;;
8094;SDS011;4090;49.270;8.696;2022-09-27T03:42:39;4.30;;;2.13;;
8094;SDS011;4090;49.270;8.696;2022-09-27T03:45:21;5.03;;;2.30;;
8094;SDS011;4090;49.270;8.696;2022-09-27T03:48:04;5.93;;;2.30;;
8094;SDS011;4090;49.270;8.696;2022-09-27T03:50:46;4.85;;;2.40;;
8094;SDS011;4090;49.270;8.696;2022-09-27T03:53:27;7.63;;;2.20;;
8094;SDS011;4090;49.270;8.696;2022-09-27T03:56:09;6.32;;;2.15;;
8094;SDS011;4090;49.270;8.696;2022-09-27T03:58:53;6.53;;;2.10;;
8094;SDS011;4090;49.270;8.696;2022-09-27T04:01:35;4.40;;;2.35;;
8094;SDS011;4090;49.270;8.696;2022-09-27T04:04:34;3.55;;;2.38;;
8094;SDS011;4090;49.270;8.696;2022-09-27T04:07:17;7.72;;;2.67;;
8094;SDS011;4090;49.270;8.696;2022-09-27T04:09:58;4.20;;;2.40;;
8094;SDS011;4090;49.270;8.696;2022-09-27T04:12:41;7.57;;;2.53;;
8094;SDS011;4090;49.270;8.696;2022-09-27T04:15:26;6.38;;;2.30;;
8094;SDS011;4090;49.270;8.696;2022-09-27T04:18:27;9.52;;;2.70;;
8094;SDS011;4090;49.270;8.696;2022-09-27T04:21:27;6.10;;;2.80;;
8094;SDS011;4090;49.270;8.696;2022-09-27T04:24:09;4.85;;;2.70;;
8094;SDS011;4090;49.270;8.696;2022-09-27T04:26:53;4.13;;;2.58;;
8094;SDS011;4090;49.270;8.696;2022-09-27T04:29:38;6.25;;;2.50;;
8094;SDS011;4090;49.270;8.696;2022-09-27T04:32:40;5.07;;;2.42;;
8094;SDS011;4090;49.270;8.696;2022-09-27T04:35:57;6.65;;;2.70;;
8094;SDS011;4090;49.270;8.696;2022-09-27T04:39:11;7.53;;;2.72;;
8094;SDS011;4090;49.270;8.696;2022-09-27T04:41:56;4.38;;;2.75;;
8094;SDS011;4090;49.270;8.696;2022-09-27T04:44:37;7.40;;;2.97;;
8094;SDS011;4090;49.270;8.696;2022-09-27T04:47:20;5.25;;;2.67;;
8094;SDS011;4090;49.270;8.696;2022-09-27T04:50:03;8.20;;;2.80;;
8094;SDS011;4090;49.270;8.696;2022-09-27T04:52:48;6.18;;;2.75;;
8094;SDS011;4090;49.270;8.696;2022-09-27T04:55:30;8.88;;;2.60;;
8094;SDS011;4090;49.270;8.696;2022-09-27T04:58:13;5.80;;;2.72;;
8094;SDS011;4090;49.270;8.696;2022-09-27T05:00:55;4.22;;;2.50;;
8094;SDS011;4090;49.270;8.696;2022-09-27T05:04:13;3.95;;;2.58;;
8094;SDS011;4090;49.270;8.696;2022-09-27T05:07:00;5.60;;;2.65;;
8094;SDS011;4090;49.270;8.696;2022-09-27T05:09:49;7.22;;;2.75;;
8094;SDS011;4090;49.270;8.696;2022-09-27T05:12:31;4.95;;;2.63;;
8094;SDS011;4090;49.270;8.696;2022-09-27T05:15:15;4.85;;;2.40;;
8094;SDS011;4090;49.270;8.696;2022-09-27T05:18:35;3.13;;;2.25;;
8094;SDS011;4090;49.270;8.696;2022-09-27T05:21:43;7.85;;;2.40;;
8094;SDS011;4090;49.270;8.696;2022-09-27T05:24:27;8.38;;;2.05;;
8094;SDS011;4090;49.270;8.696;2022-09-27T05:27:12;4.45;;;2.00;;
8094;SDS011;4090;49.270;8.696;2022-09-27T05:29:57;5.10;;;2.10;;
8094;SDS011;4090;49.270;8.696;2022-09-27T05:32:48;3.53;;;1.83;;
8094;SDS011;4090;49.270;8.696;2022-09-27T05:35:53;8.13;;;1.85;;
8094;SDS011;4090;49.270;8.696;2022-09-27T05:38:38;5.22;;;2.25;;
8094;SDS011;4090;49.270;8.696;2022-09-27T05:41:22;5.03;;;1.92;;
8094;SDS011;4090;49.270;8.696;2022-09-27T05:44:06;2.83;;;1.70;;
8094;SDS011;4090;49.270;8.696;2022-09-27T05:46:52;6.57;;;1.80;;
8094;SDS011;4090;49.270;8.696;2022-09-27T05:49:33;2.13;;;1.40;;
8094;SDS011;4090;49.270;8.696;2022-09-27T05:52:17;3.03;;;1.70;;
8094;SDS011;4090;49.270;8.696;2022-09-27T05:55:00;5.05;;;2.60;;
8094;SDS011;4090;49.270;8.696;2022-09-27T05:57:52;2.50;;;1.60;;
8094;SDS011;4090;49.270;8.696;2022-09-27T06:00:36;2.90;;;1.63;;
8094;SDS011;4090;49.270;8.696;2022-09-27T06:03:30;1.73;;;1.50;;
8094;SDS011;4090;49.270;8.696;2022-09-27T06:06:45;2.42;;;1.58;;
8094;SDS011;4090;49.270;8.696;2022-09-27T06:09:27;4.68;;;1.83;;
8094;SDS011;4090;49.270;8.696;2022-09-27T06:12:09;2.83;;;1.80;;
8094;SDS011;4090;49.270;8.696;2022-09-27T06:14:53;3.13;;;1.75;;
8094;SDS011;4090;49.270;8.696;2022-09-27T06:17:48;3.00;;;1.90;;
8094;SDS011;4090;49.270;8.696;2022-09-27T06:20:32;10.77;;;2.90;;
8094;SDS011;4090;49.270;8.696;2022-09-27T06:23:15;3.15;;;1.92;;
8094;SDS011;4090;49.270;8.696;2022-09-27T06:26:00;2.83;;;1.85;;
8094;SDS011;4090;49.270;8.696;2022-09-27T06:28:54;4.70;;;1.90;;
8094;SDS011;4090;49.270;8.696;2022-09-27T06:31:38;4.38;;;2.00;;
8094;SDS011;4090;49.270;8.696;2022-09-27T06:34:46;3.78;;;1.80;;
8094;SDS011;4090;49.270;8.696;2022-09-27T06:37:28;4.93;;;1.70;;
8094;SDS011;4090;49.270;8.696;2022-09-27T06:40:10;8.25;;;2.40;;
8094;SDS011;4090;49.270;8.696;2022-09-27T06:43:06;2.70;;;1.92;;
8094;SDS011;4090;49.270;8.696;2022-09-27T06:46:16;2.85;;;2.00;;
8094;SDS011;4090;49.270;8.696;2022-09-27T06:49:08;5.50;;;1.85;;
8094;SDS011;4090;49.270;8.696;2022-09-27T06:51:52;4.90;;;2.00;;
8094;SDS011;4090;49.270;8.696;2022-09-27T06:54:36;2.47;;;1.80;;
8094;SDS011;4090;49.270;8.696;2022-09-27T06:57:18;4.68;;;1.77;;
8094;SDS011;4090;49.270;8.696;2022-09-27T07:00:14;3.20;;;1.88;;
8094;SDS011;4090;49.270;8.696;2022-09-27T07:03:24;2.45;;;1.55;;
8094;SDS011;4090;49.270;8.696;2022-09-27T07:06:31;3.85;;;2.20;;
8094;SDS011;4090;49.270;8.696;2022-09-27T07:09:28;3.20;;;2.40;;
8094;SDS011;4090;49.270;8.696;2022-09-27T07:12:10;3.80;;;2.00;;
8094;SDS011;4090;49.270;8.696;2022-09-27T07:14:52;4.13;;;2.08;;
8094;SDS011;4090;49.270;8.696;2022-09-27T07:17:34;2.28;;;2.00;;
8094;SDS011;4090;49.270;8.696;2022-09-27T07:20:16;2.35;;;1.90;;
8094;SDS011;4090;49.270;8.696;2022-09-27T07:22:59;4.25;;;1.75;;
8094;SDS011;4090;49.270;8.696;2022-09-27T07:25:41;4.32;;;1.98;;
8094;SDS011;4090;49.270;8.696;2022-09-27T07:28:23;5.30;;;1.80;;
8094;SDS011;4090;49.270;8.696;2022-09-27T07:31:05;3.17;;;2.03;;
8094;SDS011;4090;49.270;8.696;2022-09-27T07:33:48;2.40;;;1.80;;
8094;SDS011;4090;49.270;8.696;2022-09-27T07:36:31;2.03;;;1.60;;
8094;SDS011;4090;49.270;8.696;2022-09-27T07:39:15;3.47;;;2.72;;
8094;SDS011;4090;49.270;8.696;2022-09-27T07:41:57;2.28;;;1.40;;
8094;SDS011;4090;49.270;8.696;2022-09-27T07:44:39;5.63;;;1.65;;
8094;SDS011;4090;49.270;8.696;2022-09-27T07:47:57;2.08;;;1.60;;
8094;SDS011;4090;49.270;8.696;2022-09-27T07:50:57;2.05;;;1.50;;
8094;SDS011;4090;49.270;8.696;2022-09-27T07:53:58;1.48;;;1.38;;
8094;SDS011;4090;49.270;8.696;2022-09-27T07:57:03;2.65;;;1.60;;
8094;SDS011;4090;49.270;8.696;2022-09-27T07:59:46;1.88;;;1.58;;
8094;SDS011;4090;49.270;8.696;2022-09-27T08:02:31;3.22;;;1.70;;
8094;SDS011;4090;49.270;8.696;2022-09-27T08:05:13;4.30;;;1.70;;
8094;SDS011;4090;49.270;8.696;2022-09-27T08:07:56;2.55;;;1.80;;
8094;SDS011;4090;49.270;8.696;2022-09-27T08:10:39;2.30;;;1.42;;
8094;SDS011;4090;49.270;8.696;2022-09-27T08:13:24;1.73;;;1.58;;
8094;SDS011;4090;49.270;8.696;2022-09-27T08:16:07;2.55;;;1.48;;
8094;SDS011;4090;49.270;8.696;2022-09-27T08:19:10;2.55;;;1.58;;
8094;SDS011;4090;49.270;8.696;2022-09-27T08:21:59;1.40;;;1.25;;
8094;SDS011;4090;49.270;8.696;2022-09-27T08:24:47;2.67;;;1.90;;
8094;SDS011;4090;49.270;8.696;2022-09-27T08:27:53;2.45;;;1.52;;
8094;SDS011;4090;49.270;8.696;2022-09-27T08:30:48;2.33;;;1.70;;
8094;SDS011;4090;49.270;8.696;2022-09-27T08:33:30;1.70;;;1.60;;
8094;SDS011;4090;49.270;8.696;2022-09-27T08:36:12;2.05;;;1.50;;
8094;SDS011;4090;49.270;8.696;2022-09-27T08:38:54;2.08;;;1.58;;
8094;SDS011;4090;49.270;8.696;2022-09-27T08:41:41;1.92;;;1.60;;
8094;SDS011;4090;49.270;8.696;2022-09-27T08:44:28;2.10;;;1.73;;
8094;SDS011;4090;49.270;8.696;2022-09-27T08:47:30;3.55;;;1.83;;
8094;SDS011;4090;49.270;8.696;2022-09-27T08:50:20;2.30;;;1.88;;
8094;SDS011;4090;49.270;8.696;2022-09-27T08:53:12;3.55;;;1.90;;
8094;SDS011;4090;49.270;8.696;2022-09-27T08:55:58;2.38;;;1.80;;
8094;SDS011;4090;49.270;8.696;2022-09-27T08:58:47;3.22;;;1.77;;
8094;SDS011;4090;49.270;8.696;2022-09-27T09:01:39;2.53;;;1.92;;
8094;SDS011;4090;49.270;8.696;2022-09-27T09:04:29;2.42;;;2.00;;
8094;SDS011;4090;49.270;8.696;2022-09-27T09:07:18;5.22;;;1.80;;
8094;SDS011;4090;49.270;8.696;2022-09-27T09:10:18;1.65;;;1.55;;
8094;SDS011;4090;49.270;8.696;2022-09-27T09:13:30;1.98;;;1.60;;
8094;SDS011;4090;49.270;8.696;2022-09-27T09:16:29;2.17;;;1.60;;
8094;SDS011;4090;49.270;8.696;2022-09-27T09:19:26;4.20;;;1.90;;
8094;SDS011;4090;49.270;8.696;2022-09-27T09:22:43;4.70;;;1.90;;
8094;SDS011;4090;49.270;8.696;2022-09-27T09:25:37;3.55;;;1.90;;
8094;SDS011;4090;49.270;8.696;2022-09-27T09:28:27;5.88;;;2.10;;
8094;SDS011;4090;49.270;8.696;2022-09-27T09:31:21;2.92;;;1.80;;
8094;SDS011;4090;49.270;8.696;2022-09-27T09:34:12;3.55;;;2.50;;
8094;SDS011;4090;49.270;8.696;2022-09-27T09:37:01;8.10;;;2.60;;
8094;SDS011;4090;49.270;8.696;2022-09-27T09:39:49;3.88;;;2.20;;
8094;SDS011;4090;49.270;8.696;2022-09-27T09:42:39;2.88;;;2.10;;
8094;SDS011;4090;49.270;8.696;2022-09-27T09:45:25;3.83;;;2.30;;
8094;SDS011;4090;49.270;8.696;2022-09-27T09:48:12;3.65;;;2.30;;
8094;SDS011;4090;49.270;8.696;2022-09-27T09:51:01;5.78;;;2.38;;
8094;SDS011;4090;49.270;8.696;2022-09-27T09:53:52;4.82;;;2.50;;
8094;SDS011;4090;49.270;8.696;2022-09-27T09:56:44;3.58;;;2.47;;
8094;SDS011;4090;49.270;8.696;2022-09-27T09:59:31;3.72;;;2.20;;
8094;SDS011;4090;49.270;8.696;2022-09-27T10:02:20;5.40;;;2.42;;
8094;SDS011;4090;49.270;8.696;2022-09-27T10:05:13;4.82;;;2.70;;
8094;SDS011;4090;49.270;8.696;2022-09-27T10:07:58;4.38;;;2.72;;
8094;SDS011;4090;49.270;8.696;2022-09-27T10:10:44;4.00;;;2.45;;
8094;SDS011;4090;49.270;8.696;2022-09-27T10:13:59;6.82;;;2.80;;
8094;SDS011;4090;49.270;8.696;2022-09-27T10:16:43;4.07;;;2.65;;
8094;SDS011;4090;49.270;8.696;2022-09-27T10:19:29;6.68;;;3.15;;
8094;SDS011;4090;49.270;8.696;2022-09-27T10:22:16;3.50;;;1.88;;
8094;SDS011;4090;49.270;8.696;2022-09-27T10:25:04;5.72;;;2.17;;
8094;SDS011;4090;49.270;8.696;2022-09-27T10:27:59;4.47;;;1.70;;
8094;SDS011;4090;49.270;8.696;2022-09-27T10:30:53;4.88;;;1.90;;
8094;SDS011;4090;49.270;8.696;2022-09-27T10:33:37;3.28;;;2.10;;
8094;SDS011;4090;49.270;8.696;2022-09-27T10:36:32;4.90;;;2.35;;
8094;SDS011;4090;49.270;8.696;2022-09-27T10:39:20;4.85;;;2.33;;
8094;SDS011;4090;49.270;8.696;2022-09-27T10:42:17;2.15;;;1.88;;
8094;SDS011;4090;49.270;8.696;2022-09-27T10:48:17;6.03;;;1.92;;
8094;SDS011;4090;49.270;8.696;2022-09-27T10:51:03;2.20;;;1.80;;
8094;SDS011;4090;49.270;8.696;2022-09-27T10:53:52;5.47;;;1.58;;
8094;SDS011;4090;49.270;8.696;2022-09-27T10:56:43;3.92;;;1.70;;
8094;SDS011;4090;49.270;8.696;2022-09-27T10:59:25;4.20;;;2.17;;
8094;SDS011;4090;49.270;8.696;2022-09-27T11:02:17;1.67;;;1.55;;
8094;SDS011;4090;49.270;8.696;2022-09-27T11:05:10;2.17;;;1.65;;
8094;SDS011;4090;49.270;8.696;2022-09-27T11:07:54;2.30;;;1.63;;
8094;SDS011;4090;49.270;8.696;2022-09-27T11:11:01;2.75;;;1.70;;
8094;SDS011;4090;49.270;8.696;2022-09-27T11:13:56;3.72;;;2.17;;
8094;SDS011;4090;49.270;8.696;2022-09-27T11:16:41;4.25;;;1.65;;
8094;SDS011;4090;49.270;8.696;2022-09-27T11:19:36;3.30;;;2.00;;
8094;SDS011;4090;49.270;8.696;2022-09-27T11:22:38;7.18;;;2.10;;
8094;SDS011;4090;49.270;8.696;2022-09-27T11:25:37;3.25;;;2.00;;
8094;SDS011;4090;49.270;8.696;2022-09-27T11:28:28;3.30;;;2.10;;
8094;SDS011;4090;49.270;8.696;2022-09-27T11:31:25;3.85;;;2.17;;
8094;SDS011;4090;49.270;8.696;2022-09-27T11:34:28;3.90;;;2.05;;
8094;SDS011;4090;49.270;8.696;2022-09-27T11:37:26;4.63;;;2.30;;
8094;SDS011;4090;49.270;8.696;2022-09-27T11:40:20;4.93;;;2.38;;
8094;SDS011;4090;49.270;8.696;2022-09-27T11:43:20;3.85;;;2.33;;
8094;SDS011;4090;49.270;8.696;2022-09-27T11:46:17;3.88;;;2.25;;
8094;SDS011;4090;49.270;8.696;2022-09-27T11:49:08;6.72;;;2.05;;
8094;SDS011;4090;49.270;8.696;2022-09-27T11:52:21;3.83;;;2.25;;
8094;SDS011;4090;49.270;8.696;2022-09-27T11:55:22;4.57;;;2.15;;
8094;SDS011;4090;49.270;8.696;2022-09-27T11:58:16;5.90;;;2.38;;
8094;SDS011;4090;49.270;8.696;2022-09-27T12:01:15;3.05;;;2.22;;
8094;SDS011;4090;49.270;8.696;2022-09-27T12:04:23;5.50;;;3.13;;
8094;SDS011;4090;49.270;8.696;2022-09-27T12:07:32;2.17;;;1.60;;
8094;SDS011;4090;49.270;8.696;2022-09-27T12:10:21;2.65;;;1.40;;
8094;SDS011;4090;49.270;8.696;2022-09-27T12:13:03;4.95;;;1.40;;
8094;SDS011;4090;49.270;8.696;2022-09-27T12:15:46;1.50;;;1.40;;
8094;SDS011;4090;49.270;8.696;2022-09-27T12:18:32;3.00;;;1.52;;
8094;SDS011;4090;49.270;8.696;2022-09-27T12:21:21;2.35;;;1.30;;
8094;SDS011;4090;49.270;8.696;2022-09-27T12:24:05;1.50;;;1.25;;
8094;SDS011;4090;49.270;8.696;2022-09-27T12:27:06;3.40;;;0.95;;
8094;SDS011;4090;49.270;8.696;2022-09-27T12:29:51;1.08;;;0.82;;
8094;SDS011;4090;49.270;8.696;2022-09-27T12:32:36;2.95;;;1.00;;
8094;SDS011;4090;49.270;8.696;2022-09-27T12:35:27;1.20;;;1.00;;
8094;SDS011;4090;49.270;8.696;2022-09-27T12:38:13;1.88;;;0.98;;
8094;SDS011;4090;49.270;8.696;2022-09-27T12:41:01;2.33;;;1.23;;
8094;SDS011;4090;49.270;8.696;2022-09-27T12:43:55;1.67;;;0.93;;
8094;SDS011;4090;49.270;8.696;2022-09-27T12:46:49;1.10;;;1.00;;
8094;SDS011;4090;49.270;8.696;2022-09-27T12:49:40;3.63;;;2.10;;
8094;SDS011;4090;49.270;8.696;2022-09-27T12:52:31;2.10;;;1.00;;
8094;SDS011;4090;49.270;8.696;2022-09-27T12:55:35;0.90;;;0.90;;
8094;SDS011;4090;49.270;8.696;2022-09-27T12:59:01;1.13;;;1.08;;
8094;SDS011;4090;49.270;8.696;2022-09-27T13:02:08;2.47;;;0.82;;
8094;SDS011;4090;49.270;8.696;2022-09-27T13:05:22;2.65;;;1.10;;
8094;SDS011;4090;49.270;8.696;2022-09-27T13:08:25;2.58;;;1.20;;
8094;SDS011;4090;49.270;8.696;2022-09-27T13:11:17;3.65;;;1.30;;
8094;SDS011;4090;49.270;8.696;2022-09-27T13:14:10;1.90;;;1.00;;
8094;SDS011;4090;49.270;8.696;2022-09-27T13:16:58;2.95;;;1.75;;
8094;SDS011;4090;49.270;8.696;2022-09-27T13:19:40;2.60;;;1.17;;
8094;SDS011;4090;49.270;8.696;2022-09-27T13:22:36;1.73;;;0.90;;
8094;SDS011;4090;49.270;8.696;2022-09-27T13:25:45;3.65;;;1.20;;
8094;SDS011;4090;49.270;8.696;2022-09-27T13:35:30;3.55;;;1.00;;
8094;SDS011;4090;49.270;8.696;2022-09-27T13:38:19;0.70;;;0.70;;
8094;SDS011;4090;49.270;8.696;2022-09-27T13:41:12;2.88;;;1.08;;
8094;SDS011;4090;49.270;8.696;2022-09-27T13:44:02;0.98;;;0.70;;
8094;SDS011;4090;49.270;8.696;2022-09-27T13:47:03;3.80;;;0.60;;
8094;SDS011;4090;49.270;8.696;2022-09-27T13:49:58;0.60;;;0.60;;
8094;SDS011;4090;49.270;8.696;2022-09-27T13:53:01;2.38;;;0.82;;
8094;SDS011;4090;49.270;8.696;2022-09-27T13:55:47;0.93;;;0.60;;
8094;SDS011;4090;49.270;8.696;2022-09-27T13:58:39;2.30;;;1.10;;
8094;SDS011;4090;49.270;8.696;2022-09-27T14:01:45;0.75;;;0.70;;
8094;SDS011;4090;49.270;8.696;2022-09-27T14:04:34;0.95;;;0.80;;
8094;SDS011;4090;49.270;8.696;2022-09-27T14:07:25;0.60;;;0.60;;
8094;SDS011;4090;49.270;8.696;2022-09-27T14:10:17;1.40;;;0.60;;
8094;SDS011;4090;49.270;8.696;2022-09-27T14:13:03;1.25;;;0.60;;
8094;SDS011;4090;49.270;8.696;2022-09-27T14:15:50;0.65;;;0.60;;
8094;SDS011;4090;49.270;8.696;2022-09-27T14:18:33;0.73;;;0.63;;
8094;SDS011;4090;49.270;8.696;2022-09-27T14:21:18;1.92;;;0.80;;
8094;SDS011;4090;49.270;8.696;2022-09-27T14:24:31;1.55;;;0.75;;
8094;SDS011;4090;49.270;8.696;2022-09-27T14:27:45;2.60;;;0.75;;
8094;SDS011;4090;49.270;8.696;2022-09-27T14:30:37;2.75;;;0.90;;
8094;SDS011;4090;49.270;8.696;2022-09-27T14:33:30;2.85;;;1.00;;
8094;SDS011;4090;49.270;8.696;2022-09-27T14:36:23;1.80;;;0.80;;
8094;SDS011;4090;49.270;8.696;2022-09-27T14:39:29;1.33;;;0.70;;
8094;SDS011;4090;49.270;8.696;2022-09-27T14:42:20;2.17;;;0.52;;
8094;SDS011;4090;49.270;8.696;2022-09-27T14:45:05;0.85;;;0.68;;
8094;SDS011;4090;49.270;8.696;2022-09-27T14:47:59;1.67;;;0.50;;
8094;SDS011;4090;49.270;8.696;2022-09-27T14:50:41;0.57;;;0.57;;
8094;SDS011;4090;49.270;8.696;2022-09-27T14:53:34;0.52;;;0.45;;
8094;SDS011;4090;49.270;8.696;2022-09-27T14:56:20;1.10;;;0.40;;
8094;SDS011;4090;49.270;8.696;2022-09-27T14:59:09;3.25;;;1.00;;
8094;SDS011;4090;49.270;8.696;2022-09-27T15:01:55;0.50;;;0.50;;
8094;SDS011;4090;49.270;8.696;2022-09-27T15:04:41;0.60;;;0.52;;
8094;SDS011;4090;49.270;8.696;2022-09-27T15:07:25;0.68;;;0.68;;
8094;SDS011;4090;49.270;8.696;2022-09-27T15:10:11;1.17;;;0.70;;
8094;SDS011;4090;49.270;8.696;2022-09-27T15:12:57;2.70;;;0.52;;
8094;SDS011;4090;49.270;8.696;2022-09-27T15:15:42;1.92;;;0.50;;
8094;SDS011;4090;49.270;8.696;2022-09-27T15:18:29;1.70;;;0.60;;
8094;SDS011;4090;49.270;8.696;2022-09-27T15:21:14;0.70;;;0.70;;
8094;SDS011;4090;49.270;8.696;2022-09-27T15:27:17;6.03;;;0.70;;
8094;SDS011;4090;49.270;8.696;2022-09-27T15:30:04;1.33;;;0.60;;
8094;SDS011;4090;49.270;8.696;2022-09-27T15:32:47;0.82;;;0.60;;
8094;SDS011;4090;49.270;8.696;2022-09-27T15:35:31;1.73;;;0.90;;
8094;SDS011;4090;49.270;8.696;2022-09-27T15:38:21;1.95;;;0.57;;
8094;SDS011;4090;49.270;8.696;2022-09-27T15:41:09;1.88;;;0.80;;
8094;SDS011;4090;49.270;8.696;2022-09-27T15:43:53;2.55;;;0.68;;
8094;SDS011;4090;49.270;8.696;2022-09-27T15:46:37;4.35;;;1.00;;
8094;SDS011;4090;49.270;8.696;2022-09-27T15:49:26;2.17;;;0.68;;
8094;SDS011;4090;49.270;8.696;2022-09-27T15:52:13;4.57;;;0.80;;
8094;SDS011;4090;49.270;8.696;2022-09-27T15:55:23;1.13;;;0.70;;
8094;SDS011;4090;49.270;8.696;2022-09-27T15:58:07;1.02;;;0.70;;
8094;SDS011;4090;49.270;8.696;2022-09-27T16:00:56;1.77;;;0.80;;
8094;SDS011;4090;49.270;8.696;2022-09-27T16:03:39;2.42;;;0.80;;
8094;SDS011;4090;49.270;8.696;2022-09-27T16:06:20;2.08;;;0.98;;
8094;SDS011;4090;49.270;8.696;2022-09-27T16:09:08;12.45;;;3.20;;
8094;SDS011;4090;49.270;8.696;2022-09-27T16:11:55;11.85;;;3.92;;
8094;SDS011;4090;49.270;8.696;2022-09-27T16:14:37;1.20;;;0.90;;
8094;SDS011;4090;49.270;8.696;2022-09-27T16:17:19;0.80;;;0.65;;
8094;SDS011;4090;49.270;8.696;2022-09-27T16:20:01;1.08;;;0.80;;
8094;SDS011;4090;49.270;8.696;2022-09-27T16:23:00;2.08;;;0.68;;
8094;SDS011;4090;49.270;8.696;2022-09-27T16:25:44;2.38;;;0.90;;
8094;SDS011;4090;49.270;8.696;2022-09-27T16:28:25;1.02;;;0.57;;
8094;SDS011;4090;49.270;8.696;2022-09-27T16:31:08;0.95;;;0.70;;
8094;SDS011;4090;49.270;8.696;2022-09-27T16:33:50;1.88;;;0.60;;
8094;SDS011;4090;49.270;8.696;2022-09-27T16:36:32;1.23;;;0.82;;
8094;SDS011;4090;49.270;8.696;2022-09-27T16:39:15;0.80;;;0.80;;
8094;SDS011;4090;49.270;8.696;2022-09-27T16:41:58;5.18;;;2.55;;
8094;SDS011;4090;49.270;8.696;2022-09-27T16:44:44;5.60;;;2.72;;
8094;SDS011;4090;49.270;8.696;2022-09-27T16:47:29;1.13;;;0.98;;
8094;SDS011;4090;49.270;8.696;2022-09-27T16:50:11;0.80;;;0.80;;
8094;SDS011;4090;49.270;8.696;2022-09-27T16:53:11;2.55;;;0.70;;
8094;SDS011;4090;49.270;8.696;2022-09-27T16:55:57;2.40;;;0.63;;
8094;SDS011;4090;49.270;8.696;2022-09-27T16:58:40;1.13;;;0.70;;
8094;SDS011;4090;49.270;8.696;2022-09-27T17:01:22;1.75;;;0.65;;
8094;SDS011;4090;49.270;8.696;2022-09-27T17:04:04;0.60;;;0.60;;
8094;SDS011;4090;49.270;8.696;2022-09-27T17:06:46;0.90;;;0.80;;
8094;SDS011;4090;49.270;8.696;2022-09-27T17:09:28;0.70;;;0.70;;
8094;SDS011;4090;49.270;8.696;2022-09-27T17:12:09;2.50;;;0.80;;
8094;SDS011;4090;49.270;8.696;2022-09-27T17:14:53;0.60;;;0.60;;
8094;SDS011;4090;49.270;8.696;2022-09-27T17:17:35;1.27;;;0.70;;
8094;SDS011;4090;49.270;8.696;2022-09-27T17:20:17;2.25;;;0.80;;
8094;SDS011;4090;49.270;8.696;2022-09-27T17:22:59;1.92;;;1.00;;
8094;SDS011;4090;49.270;8.696;2022-09-27T17:25:41;1.02;;;0.63;;
8094;SDS011;4090;49.270;8.696;2022-09-27T17:28:23;0.50;;;0.50;;
8094;SDS011;4090;49.270;8.696;2022-09-27T17:31:07;1.10;;;0.77;;
8094;SDS011;4090;49.270;8.696;2022-09-27T17:33:50;0.80;;;0.80;;
8094;SDS011;4090;49.270;8.696;2022-09-27T17:36:32;2.00;;;0.80;;
8094;SDS011;4090;49.270;8.696;2022-09-27T17:39:17;1.30;;;0.77;;
8094;SDS011;4090;49.270;8.696;2022-09-27T17:42:01;1.80;;;0.80;;
8094;SDS011;4090;49.270;8.696;2022-09-27T17:44:43;2.40;;;0.90;;
8094;SDS011;4090;49.270;8.696;2022-09-27T17:47:27;1.98;;;0.90;;
8094;SDS011;4090;49.270;8.696;2022-09-27T17:50:26;0.90;;;0.90;;
8094;SDS011;4090;49.270;8.696;2022-09-27T17:53:08;2.13;;;0.68;;
8094;SDS011;4090;49.270;8.696;2022-09-27T17:55:50;1.40;;;0.80;;